Time;durP1;ratioP1;P1;durP2;ratioP2;P2;SDS_P1;SDS_P2;PMS_P1;PMS_P2;Temp;Humidity;BMP_temperature;BMP_pressure;BME280_temperature;BME280_humidity;BME280_pressure;Samples;Min_cycle;Max_cycle;Signal;HPM_P1;HPM_P2
2022/12/19 00:01:32;;;;;;;51.05;15.23;;;;;;;;;;4803624;29;20051;-48
2022/12/19 00:04:00;;;;;;;74.50;16.02;;;;;;;;;;4803092;29;20046;-39
2022/12/19 00:06:32;;;;;;;60.88;14.32;;;;;;;;;;4802488;29;20055;-40
2022/12/19 00:08:59;;;;;;;43.53;12.63;;;;;;;;;;4802623;29;20074;-39
2022/12/19 00:11:27;;;;;;;53.63;13.85;;;;;;;;;;4802415;29;20046;-39
2022/12/19 00:13:54;;;;;;;51.47;12.52;;;;;;;;;;4802547;29;20051;-39
2022/12/19 00:16:23;;;;;;;59.17;13.70;;;;;;;;;;4803264;29;20046;-39
2022/12/19 00:18:50;;;;;;;49.30;12.52;;;;;;;;;;4802625;29;20080;-40
2022/12/19 00:21:21;;;;;;;42.08;12.23;;;;;;;;;;4785839;29;20079;-44
2022/12/19 00:23:48;;;;;;;50.95;12.40;;;;;;;;;;4802375;29;20045;-47
2022/12/19 00:26:16;;;;;;;61.58;12.43;;;;;;;;;;4801908;29;20042;-46
2022/12/19 00:28:47;;;;;;;69.32;14.63;;;;;;;;;;4802340;29;20126;-43
2022/12/19 00:31:14;;;;;;;46.80;11.90;;;;;;;;;;4801723;29;20054;-43
2022/12/19 00:33:41;;;;;;;55.78;12.38;;;;;;;;;;4802130;29;20046;-39
2022/12/19 00:36:12;;;;;;;45.97;12.80;;;;;;;;;;4785569;29;20055;-42
2022/12/19 00:38:38;;;;;;;58.30;13.23;;;;;;;;;;4802262;29;20095;-39
2022/12/19 00:41:06;;;;;;;54.83;12.80;;;;;;;;;;4801401;29;20039;-41
2022/12/19 00:43:34;;;;;;;49.83;12.60;;;;;;;;;;4802237;29;20043;-44
2022/12/19 00:46:06;;;;;;;55.20;12.77;;;;;;;;;;4801990;29;20047;-42
2022/12/19 00:48:33;;;;;;;61.45;14.70;;;;;;;;;;4801823;29;20043;-40
2022/12/19 00:51:02;;;;;;;58.30;13.50;;;;;;;;;;4782250;29;20046;-43
2022/12/19 00:53:30;;;;;;;42.58;11.60;;;;;;;;;;4785846;29;20074;-38
2022/12/19 00:56:00;;;;;;;52.40;13.60;;;;;;;;;;4801538;29;20077;-42
2022/12/19 00:58:26;;;;;;;51.38;12.52;;;;;;;;;;4803007;29;20050;-40
2022/12/19 01:00:53;;;;;;;51.65;12.73;;;;;;;;;;4801390;29;20043;-39
2022/12/19 01:03:20;;;;;;;49.28;12.65;;;;;;;;;;4785478;29;20049;-39
2022/12/19 01:05:46;;;;;;;51.85;11.30;;;;;;;;;;4798007;29;20118;-39
2022/12/19 01:08:13;;;;;;;51.65;12.40;;;;;;;;;;4801381;29;20086;-44
2022/12/19 01:10:46;;;;;;;81.45;14.95;;;;;;;;;;4801445;29;20047;-39
2022/12/19 01:13:13;;;;;;;57.28;13.05;;;;;;;;;;4784968;29;20155;-48
2022/12/19 01:15:42;;;;;;;41.88;12.50;;;;;;;;;;4801469;29;20121;-39
2022/12/19 01:18:09;;;;;;;50.72;11.52;;;;;;;;;;4798190;29;20046;-39
2022/12/19 01:20:37;;;;;;;44.63;11.57;;;;;;;;;;4784740;29;20130;-38
2022/12/19 01:23:03;;;;;;;51.67;11.88;;;;;;;;;;4784860;29;20150;-41
2022/12/19 01:25:31;;;;;;;52.42;12.43;;;;;;;;;;4801826;29;20543;-39
2022/12/19 01:27:59;;;;;;;49.78;12.38;;;;;;;;;;4801850;29;20106;-40
2022/12/19 01:30:27;;;;;;;53.70;11.52;;;;;;;;;;4784766;29;20053;-39
2022/12/19 01:32:56;;;;;;;46.80;12.05;;;;;;;;;;4781323;29;20146;-41
2022/12/19 01:35:25;;;;;;;59.85;12.13;;;;;;;;;;4784628;29;20430;-45
2022/12/19 01:37:52;;;;;;;79.47;14.68;;;;;;;;;;4784932;29;20428;-44
2022/12/19 01:40:34;;;;;;;65.30;13.45;;;;;;;;;;4801049;29;20420;-39
2022/12/19 01:43:00;;;;;;;45.50;11.80;;;;;;;;;;4802006;29;20066;-38
2022/12/19 01:45:28;;;;;;;63.33;13.43;;;;;;;;;;4801114;29;20065;-41
2022/12/19 01:48:06;;;;;;;46.47;12.18;;;;;;;;;;4784711;29;20047;-45
2022/12/19 01:50:48;;;;;;;68.25;13.77;;;;;;;;;;4781567;29;20046;-39
2022/12/19 01:53:33;;;;;;;53.25;11.23;;;;;;;;;;4804150;29;20043;-44
2022/12/19 01:56:05;;;;;;;50.60;11.93;;;;;;;;;;4788431;29;20054;-45
2022/12/19 01:58:35;;;;;;;47.42;12.60;;;;;;;;;;4788954;29;20100;-42
2022/12/19 02:01:02;;;;;;;57.08;13.15;;;;;;;;;;4788479;29;20405;-38
2022/12/19 02:03:30;;;;;;;48.55;13.63;;;;;;;;;;4788133;29;20049;-41
2022/12/19 02:05:57;;;;;;;54.85;12.02;;;;;;;;;;4804624;29;20053;-48
2022/12/19 02:08:25;;;;;;;59.00;12.93;;;;;;;;;;4788236;29;20050;-39
2022/12/19 02:10:51;;;;;;;75.15;13.85;;;;;;;;;;4804169;29;20055;-38
2022/12/19 02:13:19;;;;;;;50.70;12.02;;;;;;;;;;4805193;29;20072;-44
2022/12/19 02:15:53;;;;;;;56.58;12.80;;;;;;;;;;4787820;29;20422;-42
2022/12/19 02:18:46;;;;;;;52.65;12.73;;;;;;;;;;4804144;29;20077;-43
2022/12/19 02:21:31;;;;;;;57.55;13.27;;;;;;;;;;4799590;29;20073;-38
2022/12/19 02:24:17;;;;;;;52.95;12.15;;;;;;;;;;4802007;29;20046;-39
2022/12/19 02:26:56;;;;;;;63.58;13.00;;;;;;;;;;4784768;29;20539;-42
2022/12/19 02:29:26;;;;;;;65.30;13.10;;;;;;;;;;4787865;29;20433;-44
2022/12/19 02:31:56;;;;;;;71.95;14.13;;;;;;;;;;4787525;29;20161;-40
2022/12/19 02:34:34;;;;;;;46.97;11.43;;;;;;;;;;4789077;29;20130;-39
2022/12/19 02:37:06;;;;;;;;;;;;;;;;;;4788718;29;20058;-36
2022/12/19 02:39:36;;;;;;;55.92;13.77;;;;;;;;;;4787501;29;19928;-38
2022/12/19 02:42:05;;;;;;;68.53;12.43;;;;;;;;;;4787263;29;20050;-39
2022/12/19 02:44:34;;;;;;;57.78;13.40;;;;;;;;;;4803727;29;20031;-39
2022/12/19 02:47:02;;;;;;;48.70;12.32;;;;;;;;;;4787369;29;20058;-38
2022/12/19 02:49:34;;;;;;;48.80;13.40;;;;;;;;;;4788165;29;20051;-39
2022/12/19 02:52:12;;;;;;;52.78;13.80;;;;;;;;;;4802490;29;20054;-38
2022/12/19 02:54:38;;;;;;;56.60;13.55;;;;;;;;;;4787302;29;20039;-39
2022/12/19 02:57:26;;;;;;;58.88;13.75;;;;;;;;;;4783816;29;20397;-38
2022/12/19 02:59:56;;;;;;;78.97;15.85;;;;;;;;;;4803609;29;20043;-41
2022/12/19 03:02:24;;;;;;;58.72;15.10;;;;;;;;;;4784530;29;20134;-39
2022/12/19 03:04:55;;;;;;;78.35;17.55;;;;;;;;;;4772268;29;20475;-41
2022/12/19 03:07:28;;;;;;;63.17;16.27;;;;;;;;;;4788182;29;20057;-38
2022/12/19 03:10:02;;;;;;;51.00;14.65;;;;;;;;;;4786899;29;20516;-39
2022/12/19 03:12:35;;;;;;;65.85;15.85;;;;;;;;;;4801156;29;20043;-38
2022/12/19 03:15:02;;;;;;;73.20;16.75;;;;;;;;;;4787100;29;20095;-39
2022/12/19 03:17:33;;;;;;;70.25;16.00;;;;;;;;;;4805445;29;20395;-42
2022/12/19 03:19:59;;;;;;;59.42;14.13;;;;;;;;;;4803059;29;20117;-40
2022/12/19 03:22:26;;;;;;;61.40;16.83;;;;;;;;;;4804222;29;20047;-40
2022/12/19 03:24:52;;;;;;;61.20;15.40;;;;;;;;;;4803228;29;20045;-46
2022/12/19 03:27:27;;;;;;;69.82;17.83;;;;;;;;;;4802969;29;20423;-43
2022/12/19 03:30:01;;;;;;;63.53;16.60;;;;;;;;;;4803273;29;20067;-38
2022/12/19 03:32:28;;;;;;;70.28;17.45;;;;;;;;;;4786978;29;20046;-40
2022/12/19 03:34:58;;;;;;;71.35;17.70;;;;;;;;;;4803423;29;20054;-45
2022/12/19 03:37:27;;;;;;;63.20;16.80;;;;;;;;;;4804153;29;20051;-41
2022/12/19 03:39:56;;;;;;;65.63;16.88;;;;;;;;;;4803161;29;20046;-38
2022/12/19 03:45:11;;;;;;;62.05;16.40;;;;;;;;;;4799079;29;20043;-39
2022/12/19 03:47:43;;;;;;;64.22;16.65;;;;;;;;;;4802818;29;20099;-39
2022/12/19 03:50:10;;;;;;;60.63;16.17;;;;;;;;;;4801057;29;20419;-42
2022/12/19 03:52:42;;;;;;;79.10;18.33;;;;;;;;;;4803164;29;20059;-38
2022/12/19 03:55:17;;;;;;;72.25;16.45;;;;;;;;;;4803337;29;20043;-39
2022/12/19 03:57:52;;;;;;;81.05;17.95;;;;;;;;;;4802902;29;20039;-48
2022/12/19 04:00:19;;;;;;;60.95;16.92;;;;;;;;;;4802562;29;20045;-39
2022/12/19 04:02:47;;;;;;;69.40;17.35;;;;;;;;;;4802474;29;20049;-38
2022/12/19 04:05:18;;;;;;;70.00;17.92;;;;;;;;;;4802590;29;20074;-47
2022/12/19 04:07:45;;;;;;;90.88;19.80;;;;;;;;;;4786473;29;20528;-43
2022/12/19 04:10:14;;;;;;;71.80;17.38;;;;;;;;;;4803325;29;20055;-41
2022/12/19 04:12:44;;;;;;;62.78;16.33;;;;;;;;;;4802353;29;20056;-39
2022/12/19 04:15:10;;;;;;;57.60;15.98;;;;;;;;;;4798603;29;20030;-48
2022/12/19 04:17:42;;;;;;;75.25;18.40;;;;;;;;;;4802474;29;20046;-44
2022/12/19 04:20:09;;;;;;;86.90;19.13;;;;;;;;;;4800817;29;20042;-44
2022/12/19 04:22:41;;;;;;;82.63;21.42;;;;;;;;;;4803142;29;20048;-38
2022/12/19 04:25:13;;;;;;;97.20;25.10;;;;;;;;;;4802340;29;20047;-41
2022/12/19 04:27:42;;;;;;;106.07;24.23;;;;;;;;;;4801899;29;20050;-45
2022/12/19 04:30:11;;;;;;;74.53;18.83;;;;;;;;;;4802553;29;20050;-40
2022/12/19 04:32:39;;;;;;;96.95;21.02;;;;;;;;;;4801861;29;20070;-46
2022/12/19 04:35:06;;;;;;;67.78;17.60;;;;;;;;;;4802586;29;20532;-39
2022/12/19 04:37:32;;;;;;;66.55;17.30;;;;;;;;;;4803079;29;20055;-49
2022/12/19 04:39:59;;;;;;;69.90;18.75;;;;;;;;;;4801824;29;20050;-41
2022/12/19 04:42:26;;;;;;;73.50;17.67;;;;;;;;;;4801368;29;20074;-39
2022/12/19 04:44:52;;;;;;;75.47;17.52;;;;;;;;;;4801920;29;20458;-42
2022/12/19 04:47:19;;;;;;;71.07;17.75;;;;;;;;;;4802523;29;20049;-39
2022/12/19 04:49:45;;;;;;;78.15;19.10;;;;;;;;;;4802264;29;20047;-41
2022/12/19 04:52:12;;;;;;;64.40;16.27;;;;;;;;;;4786385;29;20092;-39
2022/12/19 04:54:38;;;;;;;79.45;17.25;;;;;;;;;;4798648;29;20042;-38
2022/12/19 04:57:05;;;;;;;65.63;17.08;;;;;;;;;;4785165;29;20050;-44
2022/12/19 04:59:32;;;;;;;65.22;16.95;;;;;;;;;;4801908;29;20057;-41
2022/12/19 05:01:58;;;;;;;77.78;19.83;;;;;;;;;;4801738;29;20054;-40
2022/12/19 05:04:25;;;;;;;73.45;17.63;;;;;;;;;;4802769;29;20043;-39
2022/12/19 05:06:52;;;;;;;69.03;17.05;;;;;;;;;;4801674;29;20530;-50
2022/12/19 05:09:19;;;;;;;70.95;18.50;;;;;;;;;;4801415;29;20119;-41
2022/12/19 05:11:45;;;;;;;71.22;17.63;;;;;;;;;;4801214;29;20078;-44
2022/12/19 05:14:12;;;;;;;85.88;19.25;;;;;;;;;;4801644;29;20047;-49
2022/12/19 05:16:38;;;;;;;82.68;18.83;;;;;;;;;;4802083;29;20055;-41
2022/12/19 05:19:05;;;;;;;70.90;17.45;;;;;;;;;;4802002;29;20055;-38
2022/12/19 05:21:31;;;;;;;63.67;18.33;;;;;;;;;;4801272;29;20092;-38
2022/12/19 05:23:58;;;;;;;77.72;17.90;;;;;;;;;;4801398;29;20043;-38
2022/12/19 05:26:24;;;;;;;61.65;17.02;;;;;;;;;;4800824;29;20054;-37
2022/12/19 05:28:51;;;;;;;79.68;18.45;;;;;;;;;;4801355;29;20042;-43
2022/12/19 05:31:18;;;;;;;72.10;16.23;;;;;;;;;;4801951;29;20050;-51
2022/12/19 05:33:46;;;;;;;65.97;18.67;;;;;;;;;;4801111;29;20050;-45
2022/12/19 05:36:13;;;;;;;73.45;17.45;;;;;;;;;;4801459;29;20049;-43
2022/12/19 05:38:40;;;;;;;83.00;18.38;;;;;;;;;;4800783;29;20911;-42
2022/12/19 05:41:11;;;;;;;63.55;17.00;;;;;;;;;;4799528;29;20057;-50
2022/12/19 05:43:37;;;;;;;60.60;15.38;;;;;;;;;;4801927;29;20078;-40
2022/12/19 05:46:04;;;;;;;82.13;20.23;;;;;;;;;;4785464;29;20137;-43
2022/12/19 05:48:31;;;;;;;77.50;18.48;;;;;;;;;;4800911;29;20043;-39
2022/12/19 05:50:58;;;;;;;66.05;16.50;;;;;;;;;;4800455;29;20057;-40
2022/12/19 05:53:26;;;;;;;77.72;17.75;;;;;;;;;;4801321;29;20122;-40
2022/12/19 05:56:22;;;;;;;94.25;18.77;;;;;;;;;;4799476;29;20042;-45
2022/12/19 05:58:49;;;;;;;98.40;21.17;;;;;;;;;;4790691;29;20059;-39
2022/12/19 06:01:17;;;;;;;75.32;18.73;;;;;;;;;;4800127;29;20051;-42
2022/12/19 06:03:45;;;;;;;68.03;17.40;;;;;;;;;;4800704;29;20041;-42
2022/12/19 06:06:12;;;;;;;76.60;19.23;;;;;;;;;;4800992;29;20065;-39
2022/12/19 06:08:40;;;;;;;72.82;17.65;;;;;;;;;;4800260;29;20077;-40
2022/12/19 06:11:08;;;;;;;62.33;17.23;;;;;;;;;;4800413;29;20057;-42
2022/12/19 06:13:34;;;;;;;90.85;20.00;;;;;;;;;;4801523;29;20121;-41
2022/12/19 06:16:03;;;;;;;72.93;19.17;;;;;;;;;;4800363;29;20135;-40
2022/12/19 06:18:30;;;;;;;73.32;18.85;;;;;;;;;;4800861;29;20096;-40
2022/12/19 06:20:57;;;;;;;78.82;17.33;;;;;;;;;;4800480;29;20035;-39
2022/12/19 06:23:24;;;;;;;76.32;18.25;;;;;;;;;;4800795;29;20046;-41
2022/12/19 06:25:50;;;;;;;86.78;20.10;;;;;;;;;;4800656;29;20047;-39
2022/12/19 06:28:17;;;;;;;73.50;18.00;;;;;;;;;;4801450;29;20075;-39
2022/12/19 06:30:44;;;;;;;76.80;18.20;;;;;;;;;;4800709;29;20096;-44
2022/12/19 06:33:10;;;;;;;80.30;19.73;;;;;;;;;;4800274;29;20043;-44
2022/12/19 06:35:37;;;;;;;83.53;19.00;;;;;;;;;;4800710;29;20492;-39
2022/12/19 06:38:03;;;;;;;88.68;20.65;;;;;;;;;;4801272;29;20049;-40
2022/12/19 06:43:15;;;;;;;79.95;18.40;;;;;;;;;;4804772;29;20046;-45
2022/12/19 06:45:42;;;;;;;81.47;19.65;;;;;;;;;;4803552;29;20065;-47
2022/12/19 06:48:08;;;;;;;90.80;19.75;;;;;;;;;;4803526;29;20043;-41
2022/12/19 06:50:35;;;;;;;94.15;20.88;;;;;;;;;;4803645;29;20433;-40
2022/12/19 06:53:01;;;;;;;77.93;18.92;;;;;;;;;;4803667;29;20043;-46
2022/12/19 06:55:28;;;;;;;78.25;19.35;;;;;;;;;;4804142;29;20565;-41
2022/12/19 06:57:55;;;;;;;82.20;20.75;;;;;;;;;;4803434;29;20508;-43
2022/12/19 07:00:22;;;;;;;73.85;19.55;;;;;;;;;;4803426;29;20504;-40
2022/12/19 07:02:50;;;;;;;93.80;21.20;;;;;;;;;;4803462;29;20407;-42
2022/12/19 07:05:17;;;;;;;71.03;19.13;;;;;;;;;;4803089;29;20054;-44
2022/12/19 07:07:44;;;;;;;95.18;21.00;;;;;;;;;;4787455;29;20079;-43
2022/12/19 07:10:10;;;;;;;91.22;21.10;;;;;;;;;;4803965;29;20504;-38
2022/12/19 07:12:37;;;;;;;75.53;20.02;;;;;;;;;;4786794;29;20528;-42
2022/12/19 07:15:03;;;;;;;78.72;19.98;;;;;;;;;;4803236;29;20077;-45
2022/12/19 07:17:30;;;;;;;92.75;20.55;;;;;;;;;;4803182;29;20123;-41
2022/12/19 07:19:57;;;;;;;79.75;20.58;;;;;;;;;;4803435;29;20057;-42
2022/12/19 07:22:26;;;;;;;77.38;20.08;;;;;;;;;;4803793;29;20051;-40
2022/12/19 07:24:53;;;;;;;77.40;19.77;;;;;;;;;;4802822;29;20133;-39
2022/12/19 07:27:21;;;;;;;76.20;20.52;;;;;;;;;;4802616;29;20563;-45
2022/12/19 07:29:48;;;;;;;92.32;22.17;;;;;;;;;;4799910;29;20047;-40
2022/12/19 07:32:14;;;;;;;82.30;21.08;;;;;;;;;;4803093;29;20043;-40
2022/12/19 07:34:41;;;;;;;91.10;21.85;;;;;;;;;;4803198;29;20050;-39
2022/12/19 07:37:07;;;;;;;68.03;20.02;;;;;;;;;;4803216;29;20047;-39
2022/12/19 07:39:34;;;;;;;106.13;26.95;;;;;;;;;;4802908;29;20055;-38
2022/12/19 07:42:00;;;;;;;84.60;23.13;;;;;;;;;;4802391;29;20733;-40
2022/12/19 07:44:35;;;;;;;82.40;20.48;;;;;;;;;;4783493;29;20133;-39
2022/12/19 07:47:02;;;;;;;93.65;23.08;;;;;;;;;;4802872;29;20061;-44
2022/12/19 07:49:28;;;;;;;82.15;21.17;;;;;;;;;;4802715;29;20078;-43
2022/12/19 07:51:55;;;;;;;83.60;21.63;;;;;;;;;;4802260;29;20126;-40
2022/12/19 07:54:21;;;;;;;75.07;22.70;;;;;;;;;;4802797;29;20043;-39
2022/12/19 07:56:48;;;;;;;81.35;22.17;;;;;;;;;;4785851;29;20579;-40
2022/12/19 07:59:14;;;;;;;87.80;25.70;;;;;;;;;;4802486;29;20043;-39
2022/12/19 08:01:41;;;;;;;101.50;24.90;;;;;;;;;;4802672;29;20055;-38
2022/12/19 08:04:08;;;;;;;74.82;21.73;;;;;;;;;;4803214;29;20129;-39
2022/12/19 08:06:34;;;;;;;79.75;22.23;;;;;;;;;;4802154;29;20057;-39
2022/12/19 08:09:06;;;;;;;87.90;21.92;;;;;;;;;;4801982;29;20061;-39
2022/12/19 08:11:33;;;;;;;82.15;22.58;;;;;;;;;;4802135;29;20103;-39
2022/12/19 08:14:00;;;;;;;82.93;22.98;;;;;;;;;;4785899;29;20431;-40
2022/12/19 08:16:27;;;;;;;85.97;25.17;;;;;;;;;;4803309;29;20050;-38
2022/12/19 08:18:54;;;;;;;86.40;22.40;;;;;;;;;;4801927;29;20047;-39
2022/12/19 08:21:21;;;;;;;82.18;23.50;;;;;;;;;;4785607;29;20500;-40
2022/12/19 08:23:50;;;;;;;93.45;24.83;;;;;;;;;;4801978;29;20046;-39
2022/12/19 08:26:25;;;;;;;76.63;21.92;;;;;;;;;;4802245;29;20066;-39
2022/12/19 08:28:55;;;;;;;107.55;24.52;;;;;;;;;;4799651;29;20046;-39
2022/12/19 08:31:23;;;;;;;97.45;24.48;;;;;;;;;;4786571;29;20058;-40
2022/12/19 08:33:51;;;;;;;90.82;22.85;;;;;;;;;;4801760;29;20050;-39
2022/12/19 08:36:19;;;;;;;79.28;22.60;;;;;;;;;;4801855;29;20479;-39
2022/12/19 08:38:46;;;;;;;80.88;21.92;;;;;;;;;;4798345;29;20047;-38
2022/12/19 08:41:13;;;;;;;79.40;23.20;;;;;;;;;;4801568;29;20511;-38
2022/12/19 08:43:39;;;;;;;86.90;23.10;;;;;;;;;;4800297;29;20087;-39
2022/12/19 08:46:06;;;;;;;95.10;24.88;;;;;;;;;;4801625;29;20058;-38
2022/12/19 08:48:33;;;;;;;77.60;21.75;;;;;;;;;;4801234;29;20070;-38
2022/12/19 08:51:01;;;;;;;69.45;20.75;;;;;;;;;;4801649;29;20050;-38
2022/12/19 08:53:28;;;;;;;70.25;20.05;;;;;;;;;;4801803;29;20492;-39
2022/12/19 08:55:58;;;;;;;80.80;23.80;;;;;;;;;;4799655;29;20049;-43
2022/12/19 08:58:25;;;;;;;101.28;23.38;;;;;;;;;;4800716;29;20104;-40
2022/12/19 09:00:52;;;;;;;76.93;21.15;;;;;;;;;;4803376;29;20039;-45
2022/12/19 09:03:27;;;;;;;75.00;21.83;;;;;;;;;;4802131;29;20145;-40
2022/12/19 09:06:03;;;;;;;83.15;23.05;;;;;;;;;;4799527;29;20050;-39
2022/12/19 09:08:39;;;;;;;81.05;21.00;;;;;;;;;;4801705;29;20083;-41
2022/12/19 09:11:10;;;;;;;85.15;22.17;;;;;;;;;;4785260;29;20062;-41
2022/12/19 09:13:37;;;;;;;74.75;22.80;;;;;;;;;;4802390;29;20061;-45
2022/12/19 09:16:14;;;;;;;76.25;21.90;;;;;;;;;;4801585;29;20051;-43
2022/12/19 09:18:41;;;;;;;83.30;22.27;;;;;;;;;;4801259;29;20067;-40
2022/12/19 09:21:14;;;;;;;84.72;21.98;;;;;;;;;;4801336;29;20053;-46
2022/12/19 09:23:41;;;;;;;62.65;21.08;;;;;;;;;;4801541;29;20039;-48
2022/12/19 09:26:09;;;;;;;84.57;23.02;;;;;;;;;;4801087;29;20047;-42
2022/12/19 09:28:37;;;;;;;80.10;24.17;;;;;;;;;;4802037;29;20047;-42
2022/12/19 09:31:05;;;;;;;77.45;23.55;;;;;;;;;;4801149;29;20061;-40
2022/12/19 09:33:32;;;;;;;69.82;20.08;;;;;;;;;;4800897;29;20491;-47
2022/12/19 09:36:11;;;;;;;76.78;22.23;;;;;;;;;;4801292;29;20042;-44
2022/12/19 09:38:37;;;;;;;90.38;22.33;;;;;;;;;;4801372;29;20046;-46
2022/12/19 09:41:24;;;;;;;85.20;23.02;;;;;;;;;;4800779;29;20054;-39
2022/12/19 09:43:53;;;;;;;83.68;23.17;;;;;;;;;;4762372;30;20657;-40
2022/12/19 09:46:42;;;;;;;81.63;23.38;;;;;;;;;;4763473;30;20518;-40
2022/12/19 09:49:16;;;;;;;85.65;22.90;;;;;;;;;;4763107;30;20154;-40
2022/12/19 09:51:46;;;;;;;86.78;25.05;;;;;;;;;;4762563;30;20568;-47
2022/12/19 09:54:33;;;;;;;84.40;21.65;;;;;;;;;;4748133;30;20043;-39
2022/12/19 09:57:02;;;;;;;66.10;20.65;;;;;;;;;;4747554;30;20059;-40
2022/12/19 09:59:45;;;;;;;84.65;21.08;;;;;;;;;;4762492;30;20058;-40
2022/12/19 10:02:50;;;;;;;72.03;21.30;;;;;;;;;;4762344;30;20587;-43
2022/12/19 10:05:29;;;;;;;63.45;19.77;;;;;;;;;;4727096;30;20044;-45
2022/12/19 10:08:20;;;;;;;65.68;20.30;;;;;;;;;;4724264;30;20056;-39
2022/12/19 10:10:52;;;;;;;76.55;20.98;;;;;;;;;;4712323;30;21085;-41
2022/12/19 10:13:57;;;;;;;64.30;20.33;;;;;;;;;;4729483;30;20161;-40
2022/12/19 10:16:38;;;;;;;79.55;21.08;;;;;;;;;;4729445;30;20094;-38
2022/12/19 10:19:07;;;;;;;84.63;22.20;;;;;;;;;;4730168;30;20056;-41
2022/12/19 10:22:02;;;;;;;107.13;25.05;;;;;;;;;;4732800;30;20071;-44
2022/12/19 10:25:14;;;;;;;97.47;23.27;;;;;;;;;;4745229;30;20118;-40
2022/12/19 10:27:59;;;;;;;62.75;19.50;;;;;;;;;;4712936;30;20498;-39
2022/12/19 10:30:28;;;;;;;75.57;21.70;;;;;;;;;;4712932;30;20053;-39
2022/12/19 10:33:00;;;;;;;67.70;21.67;;;;;;;;;;4709226;30;20613;-42
2022/12/19 10:35:41;;;;;;;81.80;20.65;;;;;;;;;;4712943;30;20049;-40
2022/12/19 10:38:11;;;;;;;71.05;21.23;;;;;;;;;;4712923;30;20088;-39
2022/12/19 10:40:42;;;;;;;79.75;20.02;;;;;;;;;;4747787;30;20586;-44
2022/12/19 10:43:28;;;;;;;66.33;19.87;;;;;;;;;;4748184;30;20431;-39
2022/12/19 10:46:08;;;;;;;68.25;20.10;;;;;;;;;;4747054;30;20051;-44
2022/12/19 10:48:34;;;;;;;69.22;18.75;;;;;;;;;;4747677;30;20059;-41
2022/12/19 10:51:01;;;;;;;71.78;20.75;;;;;;;;;;4732891;30;20060;-44
2022/12/19 10:53:32;;;;;;;64.60;19.05;;;;;;;;;;4733484;30;20048;-43
2022/12/19 10:56:00;;;;;;;65.70;19.58;;;;;;;;;;4747631;30;20669;-41
2022/12/19 10:58:34;;;;;;;73.18;20.15;;;;;;;;;;4748535;30;20056;-42
2022/12/19 11:01:15;;;;;;;57.40;17.13;;;;;;;;;;4732546;30;20559;-39
2022/12/19 11:03:44;;;;;;;70.50;18.65;;;;;;;;;;4749478;29;20100;-43
2022/12/19 11:06:30;;;;;;;60.67;18.45;;;;;;;;;;4803931;29;20051;-47
2022/12/19 11:09:15;;;;;;;76.95;19.63;;;;;;;;;;4801776;29;20063;-39
2022/12/19 11:11:41;;;;;;;58.72;17.88;;;;;;;;;;4801481;29;20039;-39
2022/12/19 11:14:29;;;;;;;70.72;19.27;;;;;;;;;;4803314;29;20039;-43
2022/12/19 11:17:30;;;;;;;62.65;17.42;;;;;;;;;;4803541;29;20047;-43
2022/12/19 11:20:21;;;;;;;61.80;18.52;;;;;;;;;;4801837;29;20070;-43
2022/12/19 11:23:12;;;;;;;70.50;18.70;;;;;;;;;;4789253;29;20047;-44
2022/12/19 11:26:00;;;;;;;77.65;19.50;;;;;;;;;;4801248;29;20137;-43
2022/12/19 11:28:46;;;;;;;65.70;17.80;;;;;;;;;;4801303;29;20119;-46
2022/12/19 11:31:34;;;;;;;54.70;17.20;;;;;;;;;;4803323;29;20038;-40
2022/12/19 11:34:22;;;;;;;65.13;17.88;;;;;;;;;;4803600;29;20059;-44
2022/12/19 11:37:08;;;;;;;65.93;18.17;;;;;;;;;;4802948;29;20053;-47
2022/12/19 11:39:50;;;;;;;66.15;18.98;;;;;;;;;;4799790;29;20061;-39
2022/12/19 11:42:34;;;;;;;69.55;18.92;;;;;;;;;;4786300;29;20038;-42
2022/12/19 11:45:01;;;;;;;65.65;19.63;;;;;;;;;;4784956;29;20061;-45
2022/12/19 11:47:31;;;;;;;71.45;19.00;;;;;;;;;;4786804;29;20042;-41
2022/12/19 11:50:07;;;;;;;81.30;19.35;;;;;;;;;;4803001;29;20099;-43
2022/12/19 11:52:42;;;;;;;63.00;17.80;;;;;;;;;;4803909;29;20125;-42
2022/12/19 11:55:41;;;;;;;56.75;15.75;;;;;;;;;;4789854;29;20050;-39
2022/12/19 11:58:08;;;;;;;62.60;18.15;;;;;;;;;;4802224;29;20061;-42
2022/12/19 12:00:36;;;;;;;72.22;18.73;;;;;;;;;;4802612;29;20042;-46
2022/12/19 12:03:02;;;;;;;57.63;16.38;;;;;;;;;;4802740;29;20122;-42
2022/12/19 12:05:38;;;;;;;75.18;20.63;;;;;;;;;;4803202;29;20087;-40
2022/12/19 12:08:20;;;;;;;73.85;18.77;;;;;;;;;;4786471;29;20047;-44
2022/12/19 12:11:18;;;;;;;75.05;17.67;;;;;;;;;;4801372;29;20051;-47
2022/12/19 12:14:18;;;;;;;76.68;19.30;;;;;;;;;;4801234;29;20047;-39
2022/12/19 12:17:16;;;;;;;76.15;20.00;;;;;;;;;;4801840;29;20127;-44
2022/12/19 12:20:09;;;;;;;71.90;16.95;;;;;;;;;;4801062;29;20083;-42
2022/12/19 12:23:31;;;;;;;76.10;19.23;;;;;;;;;;4788912;29;20082;-39
2022/12/19 12:26:26;;;;;;;78.05;16.55;;;;;;;;;;4743077;30;20718;-39
2022/12/19 12:29:31;;;;;;;47.58;13.60;;;;;;;;;;4746295;30;20040;-45
2022/12/19 12:32:24;;;;;;;52.97;14.50;;;;;;;;;;4743932;30;20048;-39
2022/12/19 12:35:16;;;;;;;71.73;16.40;;;;;;;;;;4745282;30;20121;-46
2022/12/19 12:38:23;;;;;;;62.20;14.38;;;;;;;;;;4745590;30;20772;-39
2022/12/19 12:40:59;;;;;;;54.95;13.85;;;;;;;;;;4744978;30;20059;-39
2022/12/19 12:43:32;;;;;;;49.80;13.23;;;;;;;;;;4746981;30;20504;-39
2022/12/19 12:45:59;;;;;;;50.20;13.73;;;;;;;;;;4745604;30;20062;-39
2022/12/19 12:48:30;;;;;;;53.60;13.20;;;;;;;;;;4730721;30;20747;-39
2022/12/19 12:50:59;;;;;;;62.13;15.07;;;;;;;;;;4745371;30;20052;-39
2022/12/19 12:53:30;;;;;;;57.25;14.48;;;;;;;;;;4745766;30;20044;-39
2022/12/19 12:55:59;;;;;;;58.05;14.80;;;;;;;;;;4745412;30;20606;-39
2022/12/19 12:58:50;;;;;;;55.92;15.18;;;;;;;;;;4745848;30;20110;-46
2022/12/19 13:01:28;;;;;;;46.13;12.68;;;;;;;;;;4727948;30;20064;-39
2022/12/19 13:04:02;;;;;;;47.30;14.95;;;;;;;;;;4725826;30;20061;-39
2022/12/19 13:06:39;;;;;;;52.95;14.95;;;;;;;;;;4713455;30;20490;-39
2022/12/19 13:09:12;;;;;;;54.75;14.93;;;;;;;;;;4725164;30;20407;-39
2022/12/19 13:14:34;;;;;;;66.10;15.05;;;;;;;;;;4727755;30;20068;-39
2022/12/19 13:17:01;;;;;;;73.07;16.00;;;;;;;;;;4727977;30;20127;-39
2022/12/19 13:19:29;;;;;;;66.13;15.23;;;;;;;;;;4728168;30;20065;-40
2022/12/19 13:22:08;;;;;;;50.97;14.18;;;;;;;;;;4727899;30;20044;-38
2022/12/19 13:24:46;;;;;;;63.00;15.57;;;;;;;;;;4726809;30;20048;-39
2022/12/19 13:27:19;;;;;;;57.45;15.40;;;;;;;;;;4724965;30;20051;-38
2022/12/19 13:29:48;;;;;;;62.10;15.77;;;;;;;;;;4727554;30;20781;-39
2022/12/19 13:32:15;;;;;;;56.33;15.50;;;;;;;;;;4727789;30;20065;-40
2022/12/19 13:34:53;;;;;;;59.35;16.48;;;;;;;;;;4728414;30;20061;-41
2022/12/19 13:37:41;;;;;;;48.00;14.55;;;;;;;;;;4740480;29;20104;-38
2022/12/19 13:40:30;;;;;;;68.10;16.67;;;;;;;;;;4801364;29;20046;-39
2022/12/19 13:45:54;;;;;;;62.55;14.98;;;;;;;;;;4798878;29;20073;-38
2022/12/19 13:48:25;;;;;;;54.97;15.13;;;;;;;;;;4799922;29;20081;-40
2022/12/19 13:50:53;;;;;;;62.70;15.32;;;;;;;;;;4800788;29;20074;-39
2022/12/19 13:53:21;;;;;;;60.35;16.27;;;;;;;;;;4801264;29;20532;-40
2022/12/19 13:55:48;;;;;;;68.95;16.50;;;;;;;;;;4801198;29;20567;-39
2022/12/19 13:58:21;;;;;;;74.93;17.67;;;;;;;;;;4801503;29;20051;-42
2022/12/19 14:00:57;;;;;;;56.70;15.27;;;;;;;;;;4798963;29;20065;-44
2022/12/19 14:03:37;;;;;;;58.30;16.38;;;;;;;;;;4801000;29;20061;-39
2022/12/19 14:06:24;;;;;;;53.63;15.38;;;;;;;;;;4784777;29;20050;-44
2022/12/19 14:08:52;;;;;;;83.75;18.73;;;;;;;;;;4799467;29;20090;-40
2022/12/19 14:11:40;;;;;;;58.92;15.98;;;;;;;;;;4799512;29;20051;-38
2022/12/19 14:17:13;;;;;;;78.18;17.45;;;;;;;;;;4800072;29;20065;-40
2022/12/19 14:19:42;;;;;;;64.20;16.17;;;;;;;;;;4801854;29;20134;-44
2022/12/19 14:22:18;;;;;;;69.45;17.48;;;;;;;;;;4800543;29;20082;-45
2022/12/19 14:25:01;;;;;;;71.32;17.58;;;;;;;;;;4798334;29;20051;-39
2022/12/19 14:27:55;;;;;;;65.28;16.35;;;;;;;;;;4799165;29;20107;-44
2022/12/19 14:30:44;;;;;;;67.05;16.73;;;;;;;;;;4799663;29;20049;-39
2022/12/19 14:33:13;;;;;;;62.40;15.55;;;;;;;;;;4800777;29;20069;-49
2022/12/19 14:36:01;;;;;;;65.78;16.95;;;;;;;;;;4800035;29;20062;-42
2022/12/19 14:38:44;;;;;;;64.95;16.40;;;;;;;;;;4798602;29;20066;-42
2022/12/19 14:44:22;;;;;;;58.95;16.48;;;;;;;;;;4798831;29;20134;-47
2022/12/19 14:47:10;;;;;;;59.55;16.55;;;;;;;;;;4800266;29;20054;-39
2022/12/19 14:49:57;;;;;;;88.18;19.98;;;;;;;;;;4800658;29;20051;-43
2022/12/19 14:52:47;;;;;;;64.03;16.88;;;;;;;;;;4801169;29;20069;-47
2022/12/19 14:55:35;;;;;;;57.20;16.83;;;;;;;;;;4801078;29;20046;-39
2022/12/19 14:58:28;;;;;;;66.38;15.98;;;;;;;;;;4800410;29;20051;-41
2022/12/19 15:01:21;;;;;;;66.75;16.90;;;;;;;;;;4804063;29;20047;-39
2022/12/19 15:03:51;;;;;;;60.17;17.02;;;;;;;;;;4801050;29;20050;-49
2022/12/19 15:06:40;;;;;;;82.00;19.33;;;;;;;;;;4787076;29;20382;-39